Time;durP1;ratioP1;P1;durP2;ratioP2;P2;SDS_P1;SDS_P2;PMS_P1;PMS_P2;Temp;Humidity;BMP_temperature;BMP_pressure;BME280_temperature;BME280_humidity;BME280_pressure;Samples;Min_cycle;Max_cycle;Signal;HPM_P1;HPM_P2
2024/03/30 00:00:43;;;;;;;9.35;3.88;;;7.50;99.90;;;6.74;100.00;99018.06;4200345;28;20028;-73
2024/03/30 00:02:43;;;;;;;9.77;3.80;;;7.50;99.90;;;6.73;100.00;99026.91;4200687;28;20020;-74
2024/03/30 00:04:44;;;;;;;8.60;4.72;;;7.40;99.90;;;6.73;100.00;99015.59;4218643;28;20388;-74
2024/03/30 00:06:45;;;;;;;11.60;4.85;;;7.40;99.90;;;6.73;100.00;99028.72;4218611;28;20093;-74
2024/03/30 00:08:46;;;;;;;11.77;5.40;;;7.40;99.90;;;6.65;100.00;99012.06;4200621;28;20424;-73
2024/03/30 00:10:47;;;;;;;13.25;4.35;;;7.40;99.90;;;6.69;100.00;99009.88;4218447;28;20028;-73
2024/03/30 00:12:49;;;;;;;11.07;4.60;;;7.40;99.90;;;6.69;100.00;99015.94;4200707;28;20372;-73
2024/03/30 00:14:50;;;;;;;10.82;4.60;;;7.40;99.90;;;6.73;100.00;99032.16;4218418;28;20134;-73
2024/03/30 00:16:51;;;;;;;10.75;4.72;;;7.40;99.90;;;6.74;100.00;99022.50;4200526;28;20028;-73
2024/03/30 00:18:53;;;;;;;9.85;4.22;;;7.40;99.90;;;6.75;100.00;99018.88;4218596;28;20390;-73
2024/03/30 00:20:54;;;;;;;12.98;5.88;;;7.40;99.90;;;6.74;100.00;99017.25;4216201;28;20502;-73
2024/03/30 00:22:55;;;;;;;39.90;19.77;;;7.40;99.90;;;6.74;100.00;99017.25;4189387;28;20025;-74
2024/03/30 00:24:55;;;;;;;37.15;17.90;;;7.50;99.90;;;6.79;100.00;99020.16;4218303;28;20021;-74
2024/03/30 00:26:56;;;;;;;29.98;13.80;;;7.50;99.90;;;6.80;100.00;99020.00;4200538;28;20025;-73
2024/03/30 00:28:57;;;;;;;20.58;8.95;;;7.50;99.90;;;6.78;100.00;99010.69;4200219;28;20023;-73
2024/03/30 00:30:58;;;;;;;16.35;6.60;;;7.50;99.90;;;6.82;100.00;99019.81;4218517;28;20036;-73
2024/03/30 00:32:59;;;;;;;11.05;5.53;;;7.50;99.90;;;6.81;100.00;99020.81;4200693;28;20060;-73
2024/03/30 00:35:00;;;;;;;16.08;4.63;;;7.50;99.90;;;6.83;100.00;99030.13;4218321;28;20036;-73
2024/03/30 00:37:03;;;;;;;8.35;3.75;;;7.50;99.90;;;6.84;100.00;99017.84;4218082;28;20048;-73
2024/03/30 00:39:04;;;;;;;9.30;3.42;;;7.50;99.90;;;6.84;100.00;99025.72;4218212;28;20028;-73
2024/03/30 00:41:05;;;;;;;10.02;4.15;;;7.50;99.90;;;6.86;100.00;99021.91;4200422;28;20035;-73
2024/03/30 00:43:07;;;;;;;11.05;3.90;;;7.50;99.90;;;6.89;100.00;99031.25;4218052;28;20035;-73
2024/03/30 00:45:08;;;;;;;10.45;3.80;;;7.60;99.90;;;6.91;100.00;99019.59;4200269;28;20021;-73
2024/03/30 00:47:09;;;;;;;11.80;3.75;;;7.60;99.90;;;6.93;100.00;99022.03;4218352;28;20028;-73
2024/03/30 00:49:10;;;;;;;11.18;4.30;;;7.60;99.90;;;6.93;100.00;99022.84;4218355;28;20035;-73
2024/03/30 00:51:10;;;;;;;9.18;4.18;;;7.60;99.90;;;6.97;100.00;99029.38;4200332;28;20427;-73
2024/03/30 00:53:11;;;;;;;8.18;3.63;;;7.60;99.90;;;6.99;100.00;99034.44;4218136;28;20031;-73
2024/03/30 00:55:12;;;;;;;11.15;4.32;;;7.60;99.90;;;6.98;100.00;99024.94;4218327;28;20028;-73
2024/03/30 00:57:13;;;;;;;10.85;4.00;;;7.70;99.90;;;7.05;100.00;99026.69;4202463;28;20576;-74
2024/03/30 00:59:14;;;;;;;15.77;5.47;;;7.70;99.90;;;7.08;100.00;99020.28;4221257;28;20043;-74
2024/03/30 01:01:16;;;;;;;13.32;5.47;;;7.80;99.90;;;7.12;100.00;99029.41;4221256;28;20081;-74
2024/03/30 01:03:17;;;;;;;16.17;7.32;;;7.80;99.90;;;7.07;100.00;99016.03;4221510;28;20032;-73
2024/03/30 01:05:18;;;;;;;16.35;7.28;;;7.80;99.90;;;7.15;100.00;99027.28;4221460;28;20020;-73
2024/03/30 01:07:19;;;;;;;16.65;6.15;;;7.90;99.90;;;7.16;100.00;99022.84;4221285;28;20074;-74
2024/03/30 01:09:20;;;;;;;10.23;4.95;;;7.80;99.90;;;7.17;100.00;99025.28;4221238;28;20035;-74
2024/03/30 01:11:21;;;;;;;15.32;5.70;;;7.90;99.90;;;7.11;100.00;99017.28;4221390;28;20043;-73
2024/03/30 01:13:22;;;;;;;12.65;4.97;;;7.80;99.90;;;7.12;100.00;99013.69;4186445;28;20108;-74
2024/03/30 01:15:24;;;;;;;11.27;5.45;;;7.80;99.90;;;7.12;100.00;99016.31;4221230;28;20019;-73
2024/03/30 01:17:25;;;;;;;12.77;5.22;;;7.80;99.90;;;7.06;100.00;99011.78;4220785;28;20035;-73
2024/03/30 01:19:26;;;;;;;12.50;5.55;;;7.80;99.90;;;7.04;100.00;98998.03;4203447;28;20024;-73
2024/03/30 01:21:28;;;;;;;11.32;4.10;;;7.80;99.90;;;7.02;100.00;99000.00;4221117;28;20044;-73
2024/03/30 01:23:29;;;;;;;17.50;4.78;;;7.70;99.90;;;6.96;100.00;99001.50;4221163;28;20020;-73
2024/03/30 01:25:31;;;;;;;12.02;4.57;;;7.70;99.90;;;6.94;100.00;99002.69;4202913;28;20107;-73
2024/03/30 01:27:32;;;;;;;12.07;4.53;;;7.70;99.90;;;6.93;100.00;99003.69;4190025;28;20052;-73
2024/03/30 01:29:36;;;;;;;17.38;4.40;;;7.70;99.90;;;6.88;100.00;99004.22;4202764;28;20406;-73
2024/03/30 01:31:37;;;;;;;9.50;4.28;;;7.60;99.90;;;6.87;100.00;98994.69;4219969;28;20024;-73
2024/03/30 01:33:42;;;;;;;12.63;3.72;;;7.60;99.90;;;6.84;100.00;98983.78;4220942;28;20032;-73
2024/03/30 01:35:43;;;;;;;;;;;7.60;99.90;;;6.78;100.00;98997.56;4203235;28;20060;-73
2024/03/30 01:37:43;;;;;;;11.40;3.90;;;7.60;99.90;;;6.75;100.00;98993.47;4236236;28;19911;-73
2024/03/30 01:39:44;;;;;;;10.10;3.28;;;7.50;99.90;;;6.72;100.00;98983.34;4220848;28;20506;-74
2024/03/30 01:41:45;;;;;;;9.50;3.55;;;7.50;99.90;;;6.73;100.00;98987.59;4220699;28;20055;-73
2024/03/30 01:43:46;;;;;;;11.63;4.50;;;7.50;99.90;;;6.71;100.00;98981.72;4202838;28;20021;-73
2024/03/30 01:45:47;;;;;;;12.15;3.92;;;7.40;99.90;;;6.69;100.00;98976.66;4224275;28;20030;-74
2024/03/30 01:47:48;;;;;;;13.57;4.05;;;7.40;99.90;;;6.71;100.00;98986.16;4209647;28;20029;-74
2024/03/30 01:49:50;;;;;;;13.38;4.30;;;7.40;99.90;;;6.69;100.00;98981.88;4220701;28;20213;-73
2024/03/30 01:51:51;;;;;;;10.50;3.05;;;7.40;99.90;;;6.69;100.00;98984.50;4205917;28;20020;-73
2024/03/30 01:53:52;;;;;;;6.68;2.67;;;7.40;99.90;;;6.69;100.00;98989.75;4219424;28;20141;-73
2024/03/30 01:55:54;;;;;;;8.48;2.85;;;7.40;99.90;;;6.68;100.00;98968.97;4202845;28;20020;-73
2024/03/30 01:57:58;;;;;;;12.60;3.67;;;7.40;99.90;;;6.64;100.00;98973.75;4219033;28;20046;-74
2024/03/30 01:59:59;;;;;;;7.75;2.80;;;7.40;99.90;;;6.65;100.00;98966.72;4210998;28;20032;-74
2024/03/30 02:02:01;;;;;;;8.35;2.80;;;7.40;99.90;;;6.68;100.00;98971.59;4220610;28;20059;-74
2024/03/30 02:04:02;;;;;;;9.85;3.60;;;7.40;99.90;;;6.68;100.00;98967.19;4202720;28;20024;-74
2024/03/30 02:06:03;;;;;;;13.57;3.08;;;7.40;99.90;;;6.63;100.00;98959.00;4220445;28;20054;-74
2024/03/30 02:08:06;;;;;;;11.40;3.08;;;7.40;99.90;;;6.62;100.00;98965.25;4202467;28;20142;-74
2024/03/30 02:10:08;;;;;;;7.55;3.05;;;7.40;99.90;;;6.60;100.00;98972.44;4220436;28;20016;-73
2024/03/30 02:12:09;;;;;;;13.18;3.28;;;7.30;99.90;;;6.57;100.00;98961.53;4202515;28;20036;-74
2024/03/30 02:14:10;;;;;;;11.10;3.17;;;7.30;99.90;;;6.53;100.00;98962.84;4202159;28;20544;-73
2024/03/30 02:16:12;;;;;;;8.48;3.10;;;7.30;99.90;;;6.54;100.00;98967.13;4185807;28;20029;-73
2024/03/30 02:18:13;;;;;;;8.45;3.47;;;7.30;99.90;;;6.49;100.00;98957.16;4220508;28;20024;-73
2024/03/30 02:20:14;;;;;;;10.82;3.50;;;7.20;99.90;;;6.46;100.00;98960.09;4202219;28;20039;-74
2024/03/30 02:22:18;;;;;;;9.57;3.22;;;7.20;99.90;;;6.39;100.00;98955.75;4218719;28;20035;-74
2024/03/30 02:24:19;;;;;;;;;;;7.10;99.90;;;6.33;100.00;98959.06;4207115;28;20097;-73
2024/03/30 02:26:19;;;;;;;10.85;3.20;;;7.10;99.90;;;6.30;100.00;98956.78;4220044;28;19912;-74
2024/03/30 02:28:21;;;;;;;7.53;3.38;;;7.00;99.90;;;6.26;100.00;98956.31;4219897;28;20039;-73
2024/03/30 02:30:28;;;;;;;7.15;2.92;;;7.00;99.90;;;6.23;100.00;98955.84;4185352;28;20028;-73
2024/03/30 02:32:29;;;;;;;12.00;3.30;;;7.00;99.90;;;6.18;100.00;98951.13;4189574;28;20028;-74
2024/03/30 02:34:30;;;;;;;18.42;3.90;;;6.90;99.90;;;6.15;100.00;98948.03;4202221;28;20033;-73
2024/03/30 02:36:33;;;;;;;11.85;2.92;;;6.90;99.90;;;6.10;100.00;98941.50;4219903;28;20100;-73
2024/03/30 02:38:33;;;;;;;14.55;4.20;;;6.90;99.90;;;6.07;100.00;98935.78;4201805;28;20403;-74
2024/03/30 02:40:34;;;;;;;10.50;3.78;;;6.80;99.90;;;6.09;100.00;98952.16;4201791;28;20035;-74
2024/03/30 02:42:35;;;;;;;9.90;5.20;;;6.80;99.90;;;6.07;100.00;98941.00;4218737;28;20447;-74
2024/03/30 02:44:36;;;;;;;13.68;3.22;;;6.80;99.90;;;6.08;100.00;98958.34;4219679;28;20023;-73
2024/03/30 02:46:37;;;;;;;7.50;3.40;;;6.80;99.90;;;6.07;100.00;98949.69;4219755;28;20020;-74
2024/03/30 02:48:38;;;;;;;12.35;3.60;;;6.80;99.90;;;6.06;100.00;98955.09;4201861;28;20017;-74
2024/03/30 02:50:38;;;;;;;8.77;3.22;;;6.80;99.90;;;6.04;100.00;98950.03;4201670;28;20031;-73
2024/03/30 02:52:39;;;;;;;11.40;3.08;;;6.70;99.90;;;6.01;100.00;98946.94;4219733;28;20399;-73
2024/03/30 02:54:40;;;;;;;11.32;3.05;;;6.80;99.90;;;6.05;100.00;98950.84;4219635;28;20035;-73
2024/03/30 02:56:41;;;;;;;15.10;3.67;;;6.80;99.90;;;6.03;100.00;98950.22;4219705;28;20017;-74
2024/03/30 02:58:42;;;;;;;10.25;3.00;;;6.70;99.90;;;6.03;100.00;98943.16;4201509;28;20028;-74
2024/03/30 03:00:42;;;;;;;7.85;3.65;;;6.70;99.90;;;5.99;100.00;98933.22;4219359;28;20032;-73
2024/03/30 03:02:43;;;;;;;10.32;2.85;;;6.70;99.90;;;6.02;100.00;98945.94;4201558;28;20028;-74
2024/03/30 03:04:44;;;;;;;5.72;2.72;;;6.70;99.90;;;6.02;100.00;98943.34;4219556;28;20028;-74
2024/03/30 03:06:45;;;;;;;14.23;3.63;;;6.70;99.90;;;6.02;100.00;98945.94;4201520;28;20025;-74
2024/03/30 03:08:46;;;;;;;12.88;3.40;;;6.70;99.90;;;5.97;100.00;98940.44;4219254;28;20022;-73
2024/03/30 03:10:47;;;;;;;10.60;3.05;;;6.70;99.90;;;5.95;100.00;98945.00;4219200;28;20046;-74
2024/03/30 03:12:49;;;;;;;9.98;3.42;;;6.70;99.90;;;5.92;100.00;98945.34;4200961;28;20050;-74
2024/03/30 03:14:49;;;;;;;5.50;2.50;;;6.60;99.90;;;5.88;100.00;98941.44;4219440;28;20598;-73
2024/03/30 03:16:50;;;;;;;6.30;2.42;;;6.60;99.90;;;5.88;100.00;98949.28;4184774;28;20080;-73
2024/03/30 03:18:51;;;;;;;5.88;2.83;;;6.60;99.90;;;5.84;100.00;98946.16;4219051;28;20032;-73
2024/03/30 03:20:52;;;;;;;5.47;2.58;;;6.60;99.90;;;5.83;100.00;98949.75;4200807;28;20029;-73
2024/03/30 03:22:53;;;;;;;6.53;2.38;;;6.60;99.90;;;5.81;100.00;98949.13;4219316;28;20506;-74
2024/03/30 03:24:53;;;;;;;7.93;2.92;;;6.50;99.90;;;5.77;100.00;98939.97;4218856;28;20433;-74
2024/03/30 03:26:54;;;;;;;10.55;3.25;;;6.50;99.90;;;5.76;100.00;98942.78;4219081;28;20539;-73
2024/03/30 03:28:55;;;;;;;11.48;2.50;;;6.50;99.90;;;5.73;100.00;98943.09;4218806;28;20028;-73
2024/03/30 03:30:56;;;;;;;10.45;2.85;;;6.50;99.90;;;5.73;100.00;98948.34;4219021;28;20454;-73
2024/03/30 03:32:57;;;;;;;11.05;3.08;;;6.40;99.90;;;5.70;100.00;98943.44;4219126;28;20028;-73
2024/03/30 03:34:58;;;;;;;9.45;3.10;;;6.40;99.90;;;5.67;100.00;98941.16;4219008;28;20085;-73
2024/03/30 03:36:58;;;;;;;7.00;2.28;;;6.40;99.90;;;5.66;100.00;98936.91;4184158;28;20052;-73
2024/03/30 03:38:59;;;;;;;13.05;2.75;;;6.40;99.90;;;5.64;100.00;98939.72;4218918;28;20081;-73
2024/03/30 03:41:00;;;;;;;11.88;2.90;;;6.40;99.90;;;5.69;100.00;98947.03;4218843;28;20073;-73
2024/03/30 03:43:01;;;;;;;5.35;2.75;;;6.40;99.90;;;5.68;100.00;98945.38;4218687;28;20050;-73
2024/03/30 03:45:02;;;;;;;7.57;3.28;;;6.40;99.90;;;5.69;100.00;98947.03;4218858;28;20026;-74
2024/03/30 03:47:02;;;;;;;6.93;2.30;;;6.40;99.90;;;5.71;100.00;98945.06;4223142;28;20019;-73
2024/03/30 03:49:03;;;;;;;9.27;2.50;;;6.40;99.90;;;5.72;100.00;98947.53;4209881;28;20025;-74
2024/03/30 03:51:04;;;;;;;6.82;2.45;;;6.50;99.90;;;5.73;100.00;98948.34;4218712;28;20036;-73
2024/03/30 03:53:05;;;;;;;6.57;2.00;;;6.50;99.90;;;5.70;100.00;98946.06;4218699;28;20028;-73
2024/03/30 03:55:07;;;;;;;5.97;2.83;;;6.40;99.90;;;5.71;100.00;98948.50;4201090;28;20028;-74
2024/03/30 03:57:07;;;;;;;5.55;2.33;;;6.40;99.90;;;5.71;100.00;98950.28;4218878;28;20032;-73
2024/03/30 03:59:08;;;;;;;8.85;2.88;;;6.40;99.90;;;5.69;100.00;98947.03;4218514;28;20047;-74
2024/03/30 04:01:11;;;;;;;11.68;2.55;;;6.40;99.90;;;5.68;100.00;98948.81;4218418;28;20024;-74
2024/03/30 04:03:13;;;;;;;8.15;2.08;;;6.40;99.90;;;5.67;100.00;98949.84;4218930;28;20028;-74
2024/03/30 04:05:14;;;;;;;6.93;2.30;;;6.40;99.90;;;5.64;100.00;98946.72;4218732;28;20028;-74
2024/03/30 04:07:15;;;;;;;8.27;1.90;;;6.40;99.90;;;5.61;100.00;98939.22;4218648;28;20054;-74
2024/03/30 04:09:17;;;;;;;8.77;2.20;;;6.30;99.90;;;5.58;100.00;98941.16;4200748;28;20021;-74
2024/03/30 04:11:18;;;;;;;6.93;2.63;;;6.30;99.90;;;5.58;100.00;98946.41;4218868;28;20032;-73
2024/03/30 04:13:19;;;;;;;5.20;2.05;;;6.30;99.90;;;5.56;100.00;98940.53;4218407;28;20030;-73
2024/03/30 04:15:20;;;;;;;7.43;1.83;;;6.30;99.90;;;5.55;100.00;98941.50;4218603;28;20060;-73
2024/03/30 04:17:21;;;;;;;10.05;1.73;;;6.30;99.90;;;5.57;100.00;98949.19;4218442;28;20039;-74
2024/03/30 04:19:21;;;;;;;7.20;2.22;;;6.30;99.90;;;5.56;100.00;98943.16;4218562;28;20020;-74
2024/03/30 04:21:22;;;;;;;5.75;1.73;;;6.30;99.90;;;5.59;100.00;98936.75;4194639;28;20459;-74
2024/03/30 04:23:23;;;;;;;11.23;2.97;;;6.30;99.90;;;5.61;100.00;98941.84;4211159;28;20024;-74
2024/03/30 04:25:24;;;;;;;6.68;2.15;;;6.40;99.90;;;5.62;100.00;98939.03;4183698;28;20395;-74
2024/03/30 04:27:25;;;;;;;9.02;2.60;;;6.40;99.90;;;5.65;100.00;98945.72;4199707;28;20032;-74
2024/03/30 04:29:26;;;;;;;9.05;2.97;;;6.40;99.90;;;5.64;100.00;98933.66;4218232;28;20483;-73
2024/03/30 04:31:27;;;;;;;5.25;1.83;;;6.40;99.90;;;5.62;100.00;98939.03;4219398;28;20046;-73
2024/03/30 04:33:28;;;;;;;8.43;2.00;;;6.40;99.90;;;5.62;100.00;98933.81;4221933;28;20036;-73
2024/03/30 04:35:29;;;;;;;6.13;2.45;;;6.40;99.90;;;5.58;100.00;98941.16;4221581;28;20042;-73
2024/03/30 04:37:31;;;;;;;9.10;2.30;;;6.40;99.90;;;5.58;100.00;98938.56;4221901;28;20032;-74
2024/03/30 04:39:33;;;;;;;9.25;2.20;;;6.40;99.90;;;5.55;100.00;98925.81;4203662;28;20036;-73
2024/03/30 04:41:34;;;;;;;7.18;2.60;;;6.40;99.90;;;5.56;100.00;98943.16;4207823;28;20028;-74
2024/03/30 04:43:36;;;;;;;7.72;2.05;;;6.30;99.90;;;5.54;100.00;98931.22;4221485;28;20024;-74
2024/03/30 04:45:37;;;;;;;8.77;2.03;;;6.30;99.90;;;5.54;100.00;98936.47;4203905;28;20052;-74
2024/03/30 04:47:37;;;;;;;9.68;2.08;;;6.30;99.90;;;5.51;100.00;98936.78;4221769;28;20035;-74
2024/03/30 04:49:38;;;;;;;9.25;2.45;;;6.30;99.90;;;5.49;100.00;98925.69;4221630;28;20025;-73
2024/03/30 04:51:39;;;;;;;7.00;2.60;;;6.30;99.90;;;5.45;100.00;98919.97;4221546;28;20039;-73
2024/03/30 04:53:40;;;;;;;8.48;1.95;;;6.30;99.90;;;5.43;100.00;98918.53;4221743;28;20024;-74
2024/03/30 04:55:41;;;;;;;7.30;2.35;;;6.20;99.90;;;5.37;100.00;98922.63;4221641;28;20028;-74
2024/03/30 04:57:42;;;;;;;5.35;2.35;;;6.20;99.90;;;5.35;100.00;98921.94;4221309;28;20039;-74
2024/03/30 04:59:42;;;;;;;10.18;3.05;;;6.10;99.90;;;5.32;100.00;98924.06;4203506;28;20060;-74
2024/03/30 05:01:43;;;;;;;6.32;2.22;;;6.10;99.90;;;5.32;100.00;98919.66;4221145;28;20031;-74
2024/03/30 05:03:44;;;;;;;6.90;1.95;;;6.00;99.90;;;5.28;100.00;98917.56;4221511;28;20032;-74
2024/03/30 05:05:47;;;;;;;5.68;2.05;;;6.00;99.90;;;5.27;100.00;98921.97;4221449;28;20070;-74
2024/03/30 05:07:48;;;;;;;9.63;2.20;;;6.00;99.90;;;5.27;100.00;98918.53;4186674;28;20428;-74
2024/03/30 05:09:49;;;;;;;8.48;2.33;;;6.00;99.90;;;5.25;100.00;98918.72;4221431;28;20031;-74
2024/03/30 05:11:49;;;;;;;5.88;2.83;;;6.00;99.90;;;5.26;100.00;98920.34;4203541;28;20025;-73
2024/03/30 05:13:51;;;;;;;8.85;2.45;;;6.00;99.90;;;5.27;100.00;98926.38;4221137;28;20035;-73
2024/03/30 05:15:52;;;;;;;6.85;2.35;;;6.10;99.90;;;5.23;100.00;98920.66;4221307;28;20026;-74
2024/03/30 05:17:53;;;;;;;12.82;2.53;;;6.00;99.90;;;5.21;100.00;98917.41;4221312;28;20047;-74
2024/03/30 05:22:13;;;;;;;15.07;3.35;;;5.90;99.90;;;5.13;100.00;98908.78;4205750;28;20044;-73
2024/03/30 05:24:14;;;;;;;6.00;2.38;;;5.90;99.90;;;5.12;100.00;98915.78;4221059;28;20028;-73
2024/03/30 05:26:15;;;;;;;11.07;3.25;;;5.90;99.90;;;5.07;100.00;98906.81;4185877;28;20044;-73
2024/03/30 05:28:19;;;;;;;10.57;2.38;;;5.80;99.90;;;5.02;100.00;98896.84;4202738;28;20068;-73
2024/03/30 05:30:20;;;;;;;11.40;2.67;;;5.80;99.90;;;5.00;100.00;98906.66;4221145;28;20391;-73
2024/03/30 05:32:21;;;;;;;12.98;2.95;;;5.70;99.90;;;4.95;100.00;98903.75;4220944;28;20040;-73
2024/03/30 05:34:22;;;;;;;9.05;2.22;;;5.70;99.90;;;4.91;100.00;98899.81;4221076;28;20024;-73
2024/03/30 05:36:23;;;;;;;11.98;2.63;;;5.70;99.90;;;4.90;100.00;98908.63;4202883;28;20059;-73
2024/03/30 05:38:23;;;;;;;10.02;2.47;;;5.60;99.90;;;4.87;100.00;98906.34;4202829;28;20033;-73
2024/03/30 05:40:25;;;;;;;5.35;1.77;;;5.60;99.90;;;4.84;100.00;98907.50;4220909;28;20028;-73
2024/03/30 05:42:25;;;;;;;4.82;1.80;;;5.60;99.90;;;4.81;100.00;98910.44;4220402;28;20043;-73
2024/03/30 05:44:27;;;;;;;16.52;3.65;;;5.60;99.90;;;4.78;100.00;98904.75;4220617;28;20028;-73
2024/03/30 05:46:27;;;;;;;6.50;2.47;;;5.50;99.90;;;4.75;100.00;98903.25;4220770;28;20032;-73
2024/03/30 05:48:28;;;;;;;6.53;2.47;;;5.50;99.90;;;4.73;100.00;98905.22;4220592;28;20055;-73
2024/03/30 05:50:30;;;;;;;12.20;2.70;;;5.50;99.90;;;4.72;100.00;98902.78;4202897;28;20033;-73
2024/03/30 05:52:30;;;;;;;6.70;2.33;;;5.50;99.90;;;4.67;100.00;98908.47;4220770;28;20031;-73
2024/03/30 05:54:31;;;;;;;12.80;3.33;;;5.40;99.90;;;4.65;100.00;98912.25;4220583;28;20073;-73
2024/03/30 05:56:32;;;;;;;6.57;2.00;;;5.40;99.90;;;4.64;100.00;98924.47;4220202;28;20032;-73
2024/03/30 05:58:33;;;;;;;5.75;3.03;;;5.40;99.90;;;4.63;100.00;98924.66;4220467;28;20028;-73
2024/03/30 06:00:34;;;;;;;10.45;2.88;;;5.40;99.90;;;4.64;100.00;98923.66;4202802;28;20035;-73
2024/03/30 06:02:34;;;;;;;9.63;3.22;;;5.40;99.90;;;4.62;100.00;98915.19;4220519;28;20032;-73
2024/03/30 06:04:35;;;;;;;9.25;2.40;;;5.40;99.90;;;4.62;100.00;98920.41;4220387;28;20032;-73
2024/03/30 06:06:36;;;;;;;6.25;2.25;;;5.40;99.90;;;4.61;100.00;98918.75;4220509;28;20054;-73
2024/03/30 06:08:37;;;;;;;11.02;2.70;;;5.40;99.90;;;4.57;100.00;98918.25;4220491;28;20043;-74
2024/03/30 06:10:38;;;;;;;12.13;2.40;;;5.40;99.90;;;4.53;100.00;98916.97;4202373;28;20036;-73
2024/03/30 06:12:39;;;;;;;6.28;2.05;;;5.30;99.90;;;4.51;100.00;98918.13;4220018;28;20039;-73
2024/03/30 06:14:40;;;;;;;6.53;2.20;;;5.30;99.90;;;4.50;100.00;98919.09;4220436;28;20039;-73
2024/03/30 06:16:42;;;;;;;9.65;4.00;;;5.20;99.90;;;4.50;100.00;98921.69;4220417;28;20028;-73
2024/03/30 06:18:43;;;;;;;8.95;2.88;;;5.20;99.90;;;4.47;100.00;98915.81;4220320;28;20058;-73
2024/03/30 06:20:44;;;;;;;9.43;2.40;;;5.20;99.90;;;4.47;100.00;98928.88;4219370;28;20036;-73
2024/03/30 06:22:45;;;;;;;10.52;2.72;;;5.20;99.90;;;4.47;100.00;98910.59;4219899;28;20032;-73
2024/03/30 06:24:46;;;;;;;8.02;2.70;;;5.20;99.90;;;4.48;100.00;98921.84;4220358;28;20399;-73
2024/03/30 06:26:47;;;;;;;4.65;2.17;;;5.20;99.90;;;4.48;100.00;98921.84;4202294;28;20024;-73
2024/03/30 06:28:48;;;;;;;7.57;2.65;;;5.30;99.90;;;4.48;100.00;98924.44;4219934;28;20049;-73
2024/03/30 06:30:49;;;;;;;5.18;2.38;;;5.20;99.90;;;4.45;100.00;98924.78;4220154;28;20024;-73
2024/03/30 06:32:51;;;;;;;14.32;2.67;;;5.20;99.90;;;4.47;100.00;98935.91;4202200;28;20055;-73
2024/03/30 06:34:52;;;;;;;7.28;2.92;;;5.20;99.90;;;4.46;100.00;98942.09;4202163;28;20063;-73
2024/03/30 06:36:53;;;;;;;4.97;2.60;;;5.20;99.90;;;4.45;100.00;98936.03;4218440;28;20040;-73
2024/03/30 06:38:54;;;;;;;7.20;3.05;;;5.20;99.90;;;4.44;100.00;98949.28;4203118;28;20024;-73
2024/03/30 06:45:33;;;;;;;7.65;2.28;;;5.20;99.90;;;4.51;100.00;98942.41;4202836;28;20071;-73
2024/03/30 06:47:34;;;;;;;7.22;3.25;;;5.30;99.90;;;4.55;100.00;98950.75;4203065;28;20036;-73
2024/03/30 06:49:35;;;;;;;9.68;3.03;;;5.30;99.90;;;4.63;100.00;98956.78;4201816;28;20020;-73
2024/03/30 06:51:36;;;;;;;10.57;3.20;;;5.40;99.90;;;4.68;100.00;98956.31;4202930;28;20024;-73
2024/03/30 06:53:37;;;;;;;11.77;2.25;;;5.40;99.90;;;4.72;100.00;98962.84;4201409;28;20408;-73
2024/03/30 06:55:38;;;;;;;12.27;3.08;;;5.50;99.90;;;4.83;100.00;98959.91;4202477;28;20107;-73
2024/03/30 06:57:38;;;;;;;5.53;2.50;;;5.60;99.90;;;4.89;100.00;98967.09;4202783;28;20024;-73
2024/03/30 06:59:39;;;;;;;8.50;2.63;;;5.60;99.90;;;4.94;100.00;98983.09;4203507;28;20081;-73
2024/03/30 07:01:40;;;;;;;9.55;2.63;;;5.60;99.90;;;5.04;100.00;98973.31;4215638;28;20086;-72
2024/03/30 07:03:41;;;;;;;4.07;2.13;;;5.70;99.90;;;5.20;100.00;98973.28;4202834;28;20028;-73
2024/03/30 07:05:42;;;;;;;11.45;4.97;;;5.90;99.90;;;5.44;100.00;98980.28;4201524;28;20078;-73
2024/03/30 07:07:43;;;;;;;8.38;3.53;;;6.00;99.90;;;5.76;100.00;98984.63;4202620;28;20024;-73
2024/03/30 07:09:43;;;;;;;15.57;3.28;;;6.30;99.90;;;6.09;100.00;98996.66;4201559;28;20024;-73
2024/03/30 07:11:44;;;;;;;14.98;4.20;;;6.60;99.90;;;6.38;100.00;98996.84;4202719;28;20028;-72
2024/03/30 07:13:46;;;;;;;11.90;3.67;;;6.80;99.90;;;6.60;100.00;98990.00;4201229;28;20028;-72
2024/03/30 07:15:48;;;;;;;12.75;4.05;;;7.10;99.90;;;6.84;100.00;98991.66;4188201;28;20021;-72
2024/03/30 07:17:49;;;;;;;16.98;3.97;;;7.30;99.90;;;7.08;100.00;98996.66;4188275;28;20039;-73
2024/03/30 07:19:50;;;;;;;12.10;4.07;;;7.50;99.90;;;7.31;100.00;98999.28;4192591;28;20036;-73
2024/03/30 07:21:51;;;;;;;15.27;4.07;;;7.80;99.90;;;7.51;100.00;99001.22;4202358;28;20040;-73
2024/03/30 07:23:52;;;;;;;11.57;4.43;;;7.90;99.90;;;7.62;100.00;99002.56;4202399;28;20013;-73
2024/03/30 07:25:53;;;;;;;13.00;3.85;;;8.10;99.90;;;7.71;100.00;99007.56;4202130;28;20499;-73
2024/03/30 07:27:53;;;;;;;13.18;4.22;;;8.20;99.90;;;7.80;100.00;99003.88;4202226;28;20021;-72
2024/03/30 07:29:54;;;;;;;17.40;4.50;;;8.40;99.90;;;7.83;100.00;99010.56;4201329;28;20028;-73
2024/03/30 07:31:56;;;;;;;9.95;4.10;;;8.40;99.90;;;7.90;100.00;99015.91;4202327;28;20028;-73
2024/03/30 07:33:57;;;;;;;7.80;3.63;;;8.50;99.90;;;8.02;100.00;99019.72;4184426;28;20120;-73
2024/03/30 07:35:59;;;;;;;8.90;3.28;;;8.60;99.90;;;8.11;100.00;99016.81;4208459;28;20059;-73
2024/03/30 07:38:00;;;;;;;10.60;3.72;;;8.70;99.90;;;8.20;100.00;99026.22;4195232;28;20025;-73
2024/03/30 07:40:02;;;;;;;8.65;3.65;;;8.80;99.90;;;8.34;100.00;99020.16;4218971;28;20035;-73
2024/03/30 07:42:04;;;;;;;6.32;3.63;;;8.90;99.90;;;8.47;100.00;99022.16;4218880;28;20411;-73
2024/03/30 07:44:05;;;;;;;7.85;3.58;;;9.00;99.90;;;8.59;100.00;99015.41;4200779;28;20025;-73
2024/03/30 07:46:06;;;;;;;8.07;3.90;;;9.10;99.90;;;8.68;100.00;99024.00;4218808;28;20031;-73
2024/03/30 07:48:07;;;;;;;11.30;4.75;;;9.20;99.90;;;8.78;100.00;99025.31;4218863;28;20054;-73
2024/03/30 07:50:08;;;;;;;12.70;3.83;;;9.30;99.90;;;8.92;100.00;99028.09;4218727;28;20102;-73
2024/03/30 07:52:08;;;;;;;6.80;2.63;;;9.40;99.90;;;9.00;100.00;99025.31;4218842;28;20032;-73
2024/03/30 07:54:09;;;;;;;5.72;2.80;;;9.60;99.90;;;9.17;100.00;99021.47;4218848;28;20039;-73
2024/03/30 07:56:10;;;;;;;4.82;2.17;;;9.70;99.90;;;9.33;100.00;99029.06;4200730;28;20040;-73
2024/03/30 07:58:11;;;;;;;9.93;2.65;;;9.80;99.90;;;9.45;100.00;99030.19;4218441;28;20032;-73
2024/03/30 08:00:12;;;;;;;7.82;1.80;;;10.00;99.90;;;9.54;100.00;99023.78;4218813;28;20399;-73
2024/03/30 08:02:13;;;;;;;5.22;2.20;;;10.10;99.90;;;9.59;100.00;99025.84;4218611;28;20023;-73
2024/03/30 08:04:18;;;;;;;7.72;1.77;;;10.20;99.90;;;9.60;100.00;99019.56;4218817;28;20020;-73
2024/03/30 08:06:19;;;;;;;6.63;1.60;;;10.20;99.90;;;9.62;100.00;99031.53;4200533;28;20028;-73
2024/03/30 08:08:20;;;;;;;2.88;1.40;;;10.30;99.90;;;9.75;100.00;99039.53;4218740;28;20484;-73
2024/03/30 08:10:23;;;;;;;9.90;2.22;;;10.30;99.90;;;9.82;100.00;99043.03;4218655;28;20449;-73
2024/03/30 08:12:24;;;;;;;6.75;1.75;;;10.40;99.90;;;9.97;100.00;99045.56;4200712;28;20028;-73
2024/03/30 08:14:25;;;;;;;7.07;2.35;;;10.50;99.90;;;10.09;100.00;99044.00;4218366;28;20036;-72
2024/03/30 08:16:26;;;;;;;4.70;1.30;;;10.60;99.90;;;10.40;100.00;99048.84;4200773;28;20066;-72
2024/03/30 08:18:27;;;;;;;6.40;1.60;;;10.90;99.90;;;10.82;100.00;99045.16;4218318;28;20105;-72
2024/03/30 08:20:28;;;;;;;4.63;1.25;;;11.30;99.90;;;11.11;100.00;99042.97;4200425;28;20035;-72
2024/03/30 08:22:28;;;;;;;3.10;1.08;;;11.60;99.90;;;11.28;100.00;99046.06;4200517;28;20087;-72
2024/03/30 08:24:29;;;;;;;4.72;1.40;;;11.80;99.90;;;11.26;100.00;99050.72;4218496;28;20024;-72
2024/03/30 08:26:30;;;;;;;5.72;1.38;;;11.90;99.90;;;11.37;100.00;99050.13;4218013;28;20085;-72
2024/03/30 08:28:31;;;;;;;4.60;1.58;;;11.90;99.90;;;11.36;100.00;99055.59;4218237;28;20399;-72
2024/03/30 08:30:32;;;;;;;6.50;1.38;;;12.00;99.90;;;11.57;100.00;99044.84;4218364;28;20368;-72
2024/03/30 08:32:33;;;;;;;3.97;1.30;;;12.10;99.90;;;11.58;100.00;99047.31;4200664;28;20074;-72
2024/03/30 08:34:33;;;;;;;5.00;1.50;;;12.20;99.90;;;11.66;100.00;99051.53;4200364;28;20081;-72
2024/03/30 08:36:34;;;;;;;5.90;1.70;;;12.20;99.90;;;11.68;100.00;99043.44;4212379;28;20044;-71
2024/03/30 08:38:35;;;;;;;4.10;1.73;;;12.30;99.90;;;11.64;100.00;99049.13;4218188;28;20036;-72